IGO7227 VOBL-VOHB
Flight info
| Callsign | IGO7227 |
|---|---|
| Flight time | 0h 55m |
| Altitude | 14000 |
| Route | OPAMO8A OPAMO DCT BUBVA DCT GULAM DCT PUKIR DCT HBL |
| Aircraft | AT76/M-SDFGIRY/S |
Departure
| Time | 2026-05-07 20:42 |
|---|---|
| Airport | Kempegowda International Airport Bengaluru (VOBL) |
Arrival
| Time | 2026-05-07 21:37 |
|---|---|
| Airport | Hubballi Airport (VOHB) |
| Time | Latitude | Longitude | Altitude | Speed | Heading |
|---|---|---|---|---|---|
| 2026-05-07 20:22 | 13.20164 | 77.70613 | 2965 ft | 0 kts | 180° |
| 2026-05-07 20:31 | 13.20188 | 77.70613 | 2953 ft | 4 kts | 182° |
| 2026-05-07 20:31 | 13.20215 | 77.70615 | 2960 ft | 4 kts | 186° |
| 2026-05-07 20:32 | 13.20242 | 77.70619 | 2965 ft | 4 kts | 200° |
| 2026-05-07 20:32 | 13.20262 | 77.70632 | 2961 ft | 4 kts | 251° |
| 2026-05-07 20:32 | 13.20264 | 77.70642 | 2955 ft | 1 kts | 270° |
| 2026-05-07 20:32 | 13.20264 | 77.70643 | 2955 ft | 6 kts | 270° |
| 2026-05-07 20:34 | 13.20264 | 77.70620 | 2954 ft | 6 kts | 270° |
| 2026-05-07 20:35 | 13.20265 | 77.70560 | 2965 ft | 10 kts | 270° |
| 2026-05-07 20:35 | 13.20265 | 77.70478 | 2965 ft | 13 kts | 271° |
| 2026-05-07 20:35 | 13.20283 | 77.70398 | 2958 ft | 11 kts | 322° |
| 2026-05-07 20:35 | 13.20358 | 77.70392 | 2965 ft | 11 kts | 360° |
| 2026-05-07 20:36 | 13.20434 | 77.70392 | 2966 ft | 10 kts | 1° |
| 2026-05-07 20:36 | 13.20501 | 77.70393 | 2966 ft | 8 kts | 354° |
| 2026-05-07 20:36 | 13.20531 | 77.70345 | 2967 ft | 10 kts | 273° |
| 2026-05-07 20:36 | 13.20531 | 77.70269 | 2968 ft | 11 kts | 270° |
| 2026-05-07 20:37 | 13.20532 | 77.70184 | 2969 ft | 12 kts | 269° |
| 2026-05-07 20:37 | 13.20532 | 77.70090 | 2969 ft | 14 kts | 270° |
| 2026-05-07 20:37 | 13.20533 | 77.69985 | 2967 ft | 16 kts | 270° |
| 2026-05-07 20:37 | 13.20534 | 77.69870 | 2967 ft | 16 kts | 270° |
| 2026-05-07 20:38 | 13.20534 | 77.69758 | 2968 ft | 15 kts | 270° |
| 2026-05-07 20:38 | 13.20536 | 77.69647 | 2967 ft | 16 kts | 271° |
| 2026-05-07 20:38 | 13.20537 | 77.69530 | 2964 ft | 17 kts | 270° |
| 2026-05-07 20:38 | 13.20538 | 77.69405 | 2963 ft | 17 kts | 271° |
| 2026-05-07 20:39 | 13.20540 | 77.69283 | 2964 ft | 17 kts | 270° |
| 2026-05-07 20:39 | 13.20562 | 77.69211 | 2961 ft | 9 kts | 347° |
| 2026-05-07 20:39 | 13.20600 | 77.69210 | 2965 ft | 0 kts | 1° |
| 2026-05-07 20:40 | 13.20615 | 77.69210 | 2962 ft | 5 kts | 2° |
| 2026-05-07 20:40 | 13.20662 | 77.69212 | 2954 ft | 9 kts | 1° |
| 2026-05-07 20:40 | 13.20710 | 77.69239 | 2962 ft | 5 kts | 80° |
| 2026-05-07 20:41 | 13.20711 | 77.69254 | 2965 ft | 1 kts | 90° |
| 2026-05-07 20:41 | 13.20709 | 77.69410 | 2965 ft | 46 kts | 91° |
| 2026-05-07 20:41 | 13.20706 | 77.69892 | 2965 ft | 92 kts | 92° |
| 2026-05-07 20:41 | 13.20704 | 77.70708 | 2983 ft | 134 kts | 91° |
| 2026-05-07 20:42 | 13.20703 | 77.71696 | 3421 ft | 138 kts | 91° |
| 2026-05-07 20:42 | 13.20902 | 77.72675 | 3908 ft | 151 kts | 64° |
| 2026-05-07 20:42 | 13.21570 | 77.73566 | 4263 ft | 163 kts | 53° |
| 2026-05-07 20:42 | 13.22223 | 77.74566 | 4633 ft | 173 kts | 61° |
| 2026-05-07 20:43 | 13.22815 | 77.75651 | 5122 ft | 174 kts | 63° |
| 2026-05-07 20:43 | 13.23373 | 77.76741 | 5703 ft | 172 kts | 62° |
| 2026-05-07 20:43 | 13.23920 | 77.77814 | 6283 ft | 171 kts | 61° |
| 2026-05-07 20:43 | 13.24473 | 77.78903 | 6799 ft | 173 kts | 61° |
| 2026-05-07 20:44 | 13.25035 | 77.80003 | 7258 ft | 175 kts | 60° |
| 2026-05-07 20:44 | 13.25601 | 77.81111 | 7693 ft | 176 kts | 60° |
| 2026-05-07 20:44 | 13.26178 | 77.82227 | 8099 ft | 178 kts | 60° |
| 2026-05-07 20:44 | 13.26868 | 77.83271 | 8494 ft | 179 kts | 36° |
| 2026-05-07 20:45 | 13.28050 | 77.83617 | 8835 ft | 181 kts | 5° |
| 2026-05-07 20:45 | 13.29320 | 77.83644 | 9209 ft | 183 kts | 1° |
| 2026-05-07 20:45 | 13.30583 | 77.83616 | 9592 ft | 185 kts | 0° |
| 2026-05-07 20:45 | 13.31872 | 77.83579 | 9961 ft | 186 kts | 0° |
| 2026-05-07 20:46 | 13.33131 | 77.83299 | 10281 ft | 190 kts | 332° |
| 2026-05-07 20:46 | 13.34253 | 77.82560 | 10567 ft | 193 kts | 330° |
| 2026-05-07 20:46 | 13.35393 | 77.81819 | 10893 ft | 195 kts | 330° |
| 2026-05-07 20:46 | 13.36546 | 77.81082 | 11242 ft | 196 kts | 330° |
| 2026-05-07 20:47 | 13.37716 | 77.80359 | 11581 ft | 197 kts | 332° |
| 2026-05-07 20:47 | 13.38499 | 77.79893 | 11810 ft | 197 kts | 332° |
| 2026-05-07 20:47 | 13.39694 | 77.79189 | 12154 ft | 198 kts | 332° |
| 2026-05-07 20:47 | 13.41285 | 77.78258 | 12607 ft | 199 kts | 332° |
| 2026-05-07 20:48 | 13.42490 | 77.77552 | 12941 ft | 200 kts | 332° |
| 2026-05-07 20:48 | 13.43703 | 77.76845 | 13260 ft | 201 kts | 333° |
| 2026-05-07 20:48 | 13.44926 | 77.76137 | 13579 ft | 202 kts | 332° |
| 2026-05-07 20:48 | 13.46155 | 77.75418 | 13826 ft | 207 kts | 332° |
| 2026-05-07 20:49 | 13.46995 | 77.74928 | 13880 ft | 214 kts | 332° |
| 2026-05-07 20:49 | 13.48789 | 77.73886 | 13925 ft | 229 kts | 332° |
| 2026-05-07 20:49 | 13.49719 | 77.73344 | 13940 ft | 235 kts | 332° |
| 2026-05-07 20:49 | 13.51660 | 77.72197 | 13951 ft | 245 kts | 329° |
| 2026-05-07 20:50 | 13.52512 | 77.71422 | 13957 ft | 250 kts | 310° |
| 2026-05-07 20:50 | 13.53901 | 77.69498 | 13954 ft | 257 kts | 308° |
| 2026-05-07 20:50 | 13.55006 | 77.68038 | 13954 ft | 261 kts | 311° |
| 2026-05-07 20:50 | 13.55808 | 77.67076 | 13957 ft | 263 kts | 314° |
| 2026-05-07 20:51 | 13.57034 | 77.65703 | 13957 ft | 265 kts | 315° |
| 2026-05-07 20:51 | 13.58306 | 77.64316 | 13959 ft | 267 kts | 315° |
| 2026-05-07 20:51 | 13.59576 | 77.62914 | 13958 ft | 269 kts | 315° |
| 2026-05-07 20:51 | 13.60851 | 77.61503 | 13959 ft | 270 kts | 315° |
| 2026-05-07 20:52 | 13.62128 | 77.60081 | 13944 ft | 271 kts | 314° |
| 2026-05-07 20:52 | 13.63816 | 77.58185 | 13951 ft | 272 kts | 314° |
| 2026-05-07 20:52 | 13.64680 | 77.57212 | 13949 ft | 273 kts | 314° |
| 2026-05-07 20:52 | 13.65966 | 77.55767 | 13948 ft | 274 kts | 314° |
| 2026-05-07 20:53 | 13.67255 | 77.54319 | 13947 ft | 275 kts | 315° |
| 2026-05-07 20:53 | 13.68530 | 77.52888 | 13947 ft | 275 kts | 314° |
| 2026-05-07 20:53 | 13.69827 | 77.51434 | 13949 ft | 276 kts | 314° |
| 2026-05-07 20:53 | 13.71123 | 77.49980 | 13945 ft | 276 kts | 314° |
| 2026-05-07 20:54 | 13.72420 | 77.48521 | 13948 ft | 276 kts | 314° |
| 2026-05-07 20:54 | 13.73719 | 77.47062 | 13946 ft | 277 kts | 315° |
| 2026-05-07 20:54 | 13.75020 | 77.45601 | 13935 ft | 277 kts | 314° |
| 2026-05-07 20:54 | 13.76318 | 77.44142 | 13932 ft | 277 kts | 314° |
| 2026-05-07 20:55 | 13.77619 | 77.42681 | 13934 ft | 277 kts | 314° |
| 2026-05-07 20:55 | 13.78902 | 77.41239 | 13932 ft | 277 kts | 314° |
| 2026-05-07 20:55 | 13.80203 | 77.39775 | 13934 ft | 277 kts | 314° |
| 2026-05-07 20:55 | 13.81504 | 77.38312 | 13934 ft | 277 kts | 314° |
| 2026-05-07 20:56 | 13.82804 | 77.36848 | 13936 ft | 277 kts | 315° |
| 2026-05-07 20:56 | 13.84104 | 77.35385 | 13937 ft | 277 kts | 315° |
| 2026-05-07 20:56 | 13.85406 | 77.33921 | 13935 ft | 277 kts | 314° |
| 2026-05-07 20:56 | 13.86708 | 77.32457 | 13937 ft | 277 kts | 315° |
| 2026-05-07 20:57 | 13.88010 | 77.30992 | 13936 ft | 277 kts | 314° |
| 2026-05-07 20:57 | 13.89294 | 77.29546 | 13922 ft | 277 kts | 315° |
| 2026-05-07 20:57 | 13.90591 | 77.28084 | 13923 ft | 277 kts | 315° |
| 2026-05-07 20:57 | 13.91888 | 77.26622 | 13924 ft | 276 kts | 314° |
| 2026-05-07 20:58 | 13.93186 | 77.25161 | 13925 ft | 276 kts | 315° |
| 2026-05-07 20:58 | 13.94481 | 77.23701 | 13927 ft | 276 kts | 315° |
| 2026-05-07 20:58 | 13.95780 | 77.22238 | 13918 ft | 277 kts | 315° |
| 2026-05-07 20:58 | 13.97077 | 77.20774 | 13920 ft | 277 kts | 315° |
| 2026-05-07 20:59 | 13.98376 | 77.19311 | 13922 ft | 277 kts | 315° |
| 2026-05-07 20:59 | 13.99678 | 77.17846 | 13922 ft | 278 kts | 315° |
| 2026-05-07 20:59 | 14.00982 | 77.16376 | 13923 ft | 278 kts | 315° |
| 2026-05-07 20:59 | 14.02268 | 77.14925 | 13914 ft | 278 kts | 315° |
| 2026-05-07 21:00 | 14.03572 | 77.13453 | 13917 ft | 278 kts | 315° |
| 2026-05-07 21:00 | 14.04877 | 77.11982 | 13916 ft | 278 kts | 315° |
| 2026-05-07 21:00 | 14.06181 | 77.10508 | 13916 ft | 278 kts | 315° |
| 2026-05-07 21:00 | 14.07485 | 77.09035 | 13916 ft | 278 kts | 315° |
| 2026-05-07 21:01 | 14.08790 | 77.07562 | 13914 ft | 278 kts | 315° |
| 2026-05-07 21:01 | 14.10096 | 77.06090 | 13913 ft | 279 kts | 315° |
| 2026-05-07 21:01 | 14.11402 | 77.04614 | 13912 ft | 279 kts | 315° |
| 2026-05-07 21:01 | 14.12708 | 77.03138 | 13911 ft | 279 kts | 315° |
| 2026-05-07 21:02 | 14.13995 | 77.01684 | 13911 ft | 279 kts | 315° |
| 2026-05-07 21:02 | 14.15301 | 77.00208 | 13901 ft | 279 kts | 315° |
| 2026-05-07 21:02 | 14.16606 | 76.98733 | 13901 ft | 279 kts | 315° |
| 2026-05-07 21:02 | 14.17912 | 76.97256 | 13901 ft | 279 kts | 315° |
| 2026-05-07 21:03 | 14.19219 | 76.95778 | 13900 ft | 279 kts | 315° |
| 2026-05-07 21:03 | 14.20525 | 76.94302 | 13900 ft | 279 kts | 315° |
| 2026-05-07 21:03 | 14.21831 | 76.92825 | 13901 ft | 279 kts | 314° |
| 2026-05-07 21:03 | 14.23139 | 76.91347 | 13903 ft | 279 kts | 314° |
| 2026-05-07 21:04 | 14.24430 | 76.89886 | 13902 ft | 279 kts | 314° |
| 2026-05-07 21:04 | 14.25738 | 76.88404 | 13903 ft | 280 kts | 314° |
| 2026-05-07 21:04 | 14.27047 | 76.86922 | 13902 ft | 280 kts | 314° |
| 2026-05-07 21:04 | 14.28358 | 76.85443 | 13895 ft | 280 kts | 314° |
| 2026-05-07 21:05 | 14.29671 | 76.83957 | 13893 ft | 280 kts | 314° |
| 2026-05-07 21:05 | 14.30987 | 76.82470 | 13895 ft | 281 kts | 314° |
| 2026-05-07 21:05 | 14.32305 | 76.80983 | 13894 ft | 281 kts | 314° |
| 2026-05-07 21:05 | 14.33623 | 76.79494 | 13894 ft | 281 kts | 314° |
| 2026-05-07 21:06 | 14.34927 | 76.78028 | 13897 ft | 281 kts | 314° |
| 2026-05-07 21:06 | 14.36252 | 76.76542 | 13898 ft | 281 kts | 314° |
| 2026-05-07 21:06 | 14.37575 | 76.75057 | 13895 ft | 281 kts | 314° |
| 2026-05-07 21:06 | 14.38898 | 76.73570 | 13896 ft | 281 kts | 314° |
| 2026-05-07 21:07 | 14.40216 | 76.72078 | 13898 ft | 281 kts | 314° |
| 2026-05-07 21:07 | 14.41534 | 76.70586 | 13892 ft | 281 kts | 314° |
| 2026-05-07 21:07 | 14.42851 | 76.69093 | 13893 ft | 281 kts | 314° |
| 2026-05-07 21:07 | 14.44169 | 76.67602 | 13891 ft | 281 kts | 314° |
| 2026-05-07 21:08 | 14.45471 | 76.66133 | 13894 ft | 281 kts | 314° |
| 2026-05-07 21:08 | 14.46790 | 76.64646 | 13898 ft | 281 kts | 314° |
| 2026-05-07 21:08 | 14.48112 | 76.63159 | 13899 ft | 281 kts | 314° |
| 2026-05-07 21:08 | 14.49430 | 76.61668 | 13898 ft | 281 kts | 314° |
| 2026-05-07 21:09 | 14.50749 | 76.60176 | 13896 ft | 281 kts | 314° |
| 2026-05-07 21:09 | 14.52071 | 76.58687 | 13896 ft | 281 kts | 314° |
| 2026-05-07 21:09 | 14.53387 | 76.57198 | 13899 ft | 281 kts | 314° |
| 2026-05-07 21:09 | 14.54705 | 76.55705 | 13892 ft | 281 kts | 314° |
| 2026-05-07 21:10 | 14.56018 | 76.54214 | 13889 ft | 281 kts | 314° |
| 2026-05-07 21:10 | 14.57328 | 76.52720 | 13892 ft | 280 kts | 314° |
| 2026-05-07 21:10 | 14.58617 | 76.51249 | 13893 ft | 280 kts | 314° |
| 2026-05-07 21:10 | 14.59924 | 76.49757 | 13893 ft | 280 kts | 314° |
| 2026-05-07 21:11 | 14.61239 | 76.48270 | 13891 ft | 280 kts | 314° |
| 2026-05-07 21:11 | 14.62555 | 76.46788 | 13892 ft | 280 kts | 314° |
| 2026-05-07 21:11 | 14.65192 | 76.43821 | 13892 ft | 280 kts | 314° |
| 2026-05-07 21:12 | 14.66512 | 76.42338 | 13894 ft | 280 kts | 314° |
| 2026-05-07 21:12 | 14.67830 | 76.40855 | 13895 ft | 280 kts | 314° |
| 2026-05-07 21:12 | 14.69149 | 76.39370 | 13894 ft | 280 kts | 314° |
| 2026-05-07 21:12 | 14.70469 | 76.37886 | 13894 ft | 280 kts | 314° |
| 2026-05-07 21:13 | 14.71769 | 76.36423 | 13892 ft | 280 kts | 314° |
| 2026-05-07 21:13 | 14.73090 | 76.34938 | 13896 ft | 280 kts | 314° |
| 2026-05-07 21:13 | 14.74409 | 76.33456 | 13894 ft | 280 kts | 314° |
| 2026-05-07 21:13 | 14.75729 | 76.31971 | 13895 ft | 281 kts | 314° |
| 2026-05-07 21:14 | 14.77050 | 76.30486 | 13895 ft | 281 kts | 314° |
| 2026-05-07 21:14 | 14.78371 | 76.29000 | 13894 ft | 281 kts | 314° |
| 2026-05-07 21:14 | 14.79691 | 76.27515 | 13894 ft | 281 kts | 314° |
| 2026-05-07 21:14 | 14.81012 | 76.26029 | 13889 ft | 281 kts | 314° |
| 2026-05-07 21:15 | 14.82314 | 76.24564 | 13890 ft | 281 kts | 314° |
| 2026-05-07 21:15 | 14.83634 | 76.23079 | 13888 ft | 280 kts | 314° |
| 2026-05-07 21:15 | 14.84955 | 76.21595 | 13889 ft | 280 kts | 314° |
| 2026-05-07 21:15 | 14.86275 | 76.20111 | 13886 ft | 280 kts | 314° |
| 2026-05-07 21:16 | 14.87593 | 76.18627 | 13886 ft | 280 kts | 314° |
| 2026-05-07 21:16 | 14.88912 | 76.17144 | 13886 ft | 280 kts | 314° |
| 2026-05-07 21:16 | 14.90233 | 76.15657 | 13883 ft | 280 kts | 314° |
| 2026-05-07 21:16 | 14.91551 | 76.14173 | 13879 ft | 280 kts | 314° |
| 2026-05-07 21:17 | 14.92874 | 76.12695 | 13885 ft | 280 kts | 314° |
| 2026-05-07 21:17 | 14.94181 | 76.11240 | 13878 ft | 280 kts | 314° |
| 2026-05-07 21:17 | 14.95503 | 76.09768 | 13878 ft | 279 kts | 314° |
| 2026-05-07 21:17 | 14.96828 | 76.08296 | 13878 ft | 279 kts | 314° |
| 2026-05-07 21:18 | 14.98151 | 76.06826 | 13873 ft | 279 kts | 314° |
| 2026-05-07 21:18 | 14.99474 | 76.05356 | 13873 ft | 279 kts | 314° |
| 2026-05-07 21:18 | 15.00798 | 76.03885 | 13872 ft | 279 kts | 314° |
| 2026-05-07 21:18 | 15.02122 | 76.02414 | 13873 ft | 279 kts | 314° |
| 2026-05-07 21:19 | 15.03445 | 76.00946 | 13872 ft | 279 kts | 314° |
| 2026-05-07 21:19 | 15.04767 | 75.99476 | 13872 ft | 279 kts | 314° |
| 2026-05-07 21:19 | 15.06072 | 75.98026 | 13874 ft | 279 kts | 314° |
| 2026-05-07 21:19 | 15.07394 | 75.96557 | 13873 ft | 279 kts | 314° |
| 2026-05-07 21:20 | 15.08716 | 75.95088 | 13869 ft | 279 kts | 314° |
| 2026-05-07 21:20 | 15.10038 | 75.93619 | 13870 ft | 279 kts | 314° |
| 2026-05-07 21:20 | 15.11361 | 75.92149 | 13874 ft | 279 kts | 314° |
| 2026-05-07 21:20 | 15.12693 | 75.90669 | 13771 ft | 284 kts | 314° |
| 2026-05-07 21:21 | 15.14050 | 75.89165 | 13629 ft | 288 kts | 314° |
| 2026-05-07 21:21 | 15.15424 | 75.87641 | 13476 ft | 291 kts | 314° |
| 2026-05-07 21:21 | 15.16790 | 75.86125 | 13320 ft | 290 kts | 314° |
| 2026-05-07 21:21 | 15.18138 | 75.84640 | 13076 ft | 277 kts | 314° |
| 2026-05-07 21:22 | 15.19427 | 75.83209 | 12816 ft | 267 kts | 315° |
| 2026-05-07 21:22 | 15.20664 | 75.81805 | 12563 ft | 260 kts | 315° |
| 2026-05-07 21:22 | 15.21861 | 75.80426 | 12316 ft | 255 kts | 314° |
| 2026-05-07 21:22 | 15.23029 | 75.79069 | 12071 ft | 250 kts | 314° |
| 2026-05-07 21:23 | 15.24187 | 75.77744 | 11825 ft | 246 kts | 314° |
| 2026-05-07 21:23 | 15.25333 | 75.76440 | 11589 ft | 243 kts | 314° |
| 2026-05-07 21:23 | 15.26468 | 75.75151 | 11351 ft | 241 kts | 314° |
| 2026-05-07 21:23 | 15.27580 | 75.73890 | 11114 ft | 239 kts | 314° |
| 2026-05-07 21:24 | 15.28696 | 75.72622 | 10878 ft | 237 kts | 314° |
| 2026-05-07 21:24 | 15.29806 | 75.71363 | 10651 ft | 236 kts | 314° |
| 2026-05-07 21:24 | 15.30910 | 75.70107 | 10417 ft | 235 kts | 314° |
| 2026-05-07 21:24 | 15.32010 | 75.68855 | 10185 ft | 235 kts | 314° |
| 2026-05-07 21:25 | 15.32943 | 75.67494 | 9922 ft | 234 kts | 292° |
| 2026-05-07 21:25 | 15.33052 | 75.65787 | 9434 ft | 244 kts | 262° |
| 2026-05-07 21:25 | 15.32766 | 75.64030 | 8956 ft | 251 kts | 262° |
| 2026-05-07 21:25 | 15.32541 | 75.62249 | 8695 ft | 247 kts | 266° |
| 2026-05-07 21:26 | 15.32466 | 75.60514 | 8478 ft | 243 kts | 271° |
| 2026-05-07 21:26 | 15.32505 | 75.58778 | 8240 ft | 240 kts | 274° |
| 2026-05-07 21:26 | 15.32578 | 75.57035 | 7769 ft | 248 kts | 274° |
| 2026-05-07 21:26 | 15.32652 | 75.55225 | 7275 ft | 254 kts | 274° |
| 2026-05-07 21:27 | 15.32720 | 75.53376 | 6795 ft | 259 kts | 274° |
| 2026-05-07 21:27 | 15.32769 | 75.51500 | 6311 ft | 262 kts | 274° |
| 2026-05-07 21:27 | 15.32815 | 75.49606 | 5803 ft | 264 kts | 274° |
| 2026-05-07 21:27 | 15.32855 | 75.47764 | 5414 ft | 242 kts | 275° |
| 2026-05-07 21:28 | 15.32881 | 75.46121 | 5230 ft | 214 kts | 275° |
| 2026-05-07 21:28 | 15.32887 | 75.44691 | 5149 ft | 189 kts | 275° |
| 2026-05-07 21:28 | 15.32899 | 75.43399 | 5105 ft | 176 kts | 276° |
| 2026-05-07 21:28 | 15.32928 | 75.42111 | 4945 ft | 181 kts | 276° |
| 2026-05-07 21:29 | 15.32956 | 75.40801 | 4773 ft | 183 kts | 277° |
| 2026-05-07 21:29 | 15.32988 | 75.39474 | 4610 ft | 185 kts | 277° |
| 2026-05-07 21:29 | 15.33283 | 75.38238 | 4445 ft | 174 kts | 307° |
| 2026-05-07 21:29 | 15.34111 | 75.37379 | 4265 ft | 167 kts | 333° |
| 2026-05-07 21:30 | 15.35145 | 75.36873 | 4109 ft | 166 kts | 330° |
| 2026-05-07 21:30 | 15.35876 | 75.35927 | 3940 ft | 176 kts | 297° |
| 2026-05-07 21:30 | 15.36311 | 75.34760 | 3701 ft | 168 kts | 298° |
| 2026-05-07 21:30 | 15.36790 | 75.33666 | 3336 ft | 167 kts | 302° |
| 2026-05-07 21:31 | 15.37300 | 75.32647 | 3294 ft | 150 kts | 305° |
| 2026-05-07 21:31 | 15.37793 | 75.31746 | 3357 ft | 146 kts | 307° |
| 2026-05-07 21:31 | 15.38312 | 75.30878 | 3384 ft | 132 kts | 310° |
| 2026-05-07 21:31 | 15.38757 | 75.30118 | 3379 ft | 119 kts | 300° |
| 2026-05-07 21:32 | 15.38700 | 75.29231 | 3371 ft | 137 kts | 266° |
| 2026-05-07 21:32 | 15.38545 | 75.28206 | 3390 ft | 139 kts | 269° |
| 2026-05-07 21:32 | 15.38416 | 75.27263 | 3397 ft | 130 kts | 269° |
| 2026-05-07 21:32 | 15.38287 | 75.26326 | 3403 ft | 133 kts | 269° |
| 2026-05-07 21:33 | 15.38150 | 75.25383 | 3405 ft | 135 kts | 269° |
| 2026-05-07 21:33 | 15.38011 | 75.24416 | 3394 ft | 137 kts | 269° |
| 2026-05-07 21:33 | 15.37871 | 75.23441 | 3393 ft | 137 kts | 269° |
| 2026-05-07 21:33 | 15.37734 | 75.22465 | 3396 ft | 137 kts | 269° |
| 2026-05-07 21:34 | 15.37597 | 75.21489 | 3407 ft | 137 kts | 269° |
| 2026-05-07 21:34 | 15.37458 | 75.20508 | 3403 ft | 138 kts | 269° |
| 2026-05-07 21:34 | 15.37317 | 75.19523 | 3400 ft | 138 kts | 269° |
| 2026-05-07 21:34 | 15.37179 | 75.18535 | 3402 ft | 139 kts | 269° |
| 2026-05-07 21:35 | 15.37042 | 75.17558 | 3402 ft | 139 kts | 269° |
| 2026-05-07 21:35 | 15.36914 | 75.16568 | 3387 ft | 137 kts | 274° |
| 2026-05-07 21:35 | 15.36859 | 75.15613 | 3293 ft | 132 kts | 277° |
| 2026-05-07 21:35 | 15.36834 | 75.14661 | 3113 ft | 132 kts | 277° |
| 2026-05-07 21:36 | 15.36797 | 75.13701 | 2957 ft | 135 kts | 272° |
| 2026-05-07 21:36 | 15.36661 | 75.12731 | 2760 ft | 137 kts | 267° |
| 2026-05-07 21:36 | 15.36533 | 75.11761 | 2615 ft | 135 kts | 268° |
| 2026-05-07 21:36 | 15.36427 | 75.10793 | 2482 ft | 133 kts | 268° |
| 2026-05-07 21:37 | 15.36314 | 75.09889 | 2275 ft | 120 kts | 264° |
| 2026-05-07 21:37 | 15.36207 | 75.09045 | 2166 ft | 114 kts | 265° |
| 2026-05-07 21:37 | 15.36155 | 75.08597 | 2164 ft | 25 kts | 263° |
| 2026-05-07 21:37 | 15.36133 | 75.08470 | 2163 ft | 4 kts | 222° |
| 2026-05-07 21:38 | 15.36083 | 75.08472 | 2163 ft | 10 kts | 173° |
| 2026-05-07 21:38 | 15.36008 | 75.08481 | 2160 ft | 12 kts | 173° |
| 2026-05-07 21:38 | 15.35920 | 75.08492 | 2160 ft | 10 kts | 175° |
| 2026-05-07 21:38 | 15.35900 | 75.08465 | 2164 ft | 1 kts | 261° |
| 2026-05-07 21:39 | 15.35888 | 75.08458 | 2164 ft | 3 kts | 171° |
| 2026-05-07 21:39 | 15.35860 | 75.08462 | 2161 ft | 1 kts | 173° |
| 2026-05-07 21:39 | 15.35849 | 75.08463 | 2164 ft | 0 kts | 174° |